sensor_id;sensor_type;location;lat;lon;timestamp;pressure;altitude;pressure_sealevel;temperature;humidity
65546;BME280;52177;55.968;37.498;2023-04-26T00:00:15;98489.38;;;12.35;72.00
65546;BME280;52177;55.968;37.498;2023-04-26T00:00:46;98482.38;;;12.34;72.06
65546;BME280;52177;55.968;37.498;2023-04-26T00:01:17;98489.56;;;12.33;72.33
65546;BME280;52177;55.968;37.498;2023-04-26T00:01:47;98485.47;;;12.31;72.46
65546;BME280;52177;55.968;37.498;2023-04-26T00:02:17;98486.28;;;12.31;72.48
65546;BME280;52177;55.968;37.498;2023-04-26T00:02:48;98482.81;;;12.31;72.90
65546;BME280;52177;55.968;37.498;2023-04-26T00:03:18;98484.47;;;12.32;72.69
65546;BME280;52177;55.968;37.498;2023-04-26T00:03:49;98481.78;;;12.32;73.01
65546;BME280;52177;55.968;37.498;2023-04-26T00:04:20;98477.03;;;12.34;72.88
65546;BME280;52177;55.968;37.498;2023-04-26T00:04:51;98473.53;;;12.33;72.93
65546;BME280;52177;55.968;37.498;2023-04-26T00:05:25;98479.47;;;12.35;72.87
65546;BME280;52177;55.968;37.498;2023-04-26T00:05:55;98477.63;;;12.36;72.80
65546;BME280;52177;55.968;37.498;2023-04-26T00:06:25;98475.56;;;12.38;72.54
65546;BME280;52177;55.968;37.498;2023-04-26T00:06:56;98470.22;;;12.38;72.40
65546;BME280;52177;55.968;37.498;2023-04-26T00:07:27;98473.69;;;12.38;72.28
65546;BME280;52177;55.968;37.498;2023-04-26T00:08:00;98471.88;;;12.39;72.09
65546;BME280;52177;55.968;37.498;2023-04-26T00:08:30;98461.59;;;12.36;72.44
65546;BME280;52177;55.968;37.498;2023-04-26T00:09:00;98469.00;;;12.34;72.59
65546;BME280;52177;55.968;37.498;2023-04-26T00:09:31;98463.66;;;12.34;72.38
65546;BME280;52177;55.968;37.498;2023-04-26T00:10:01;98468.19;;;12.33;72.25
65546;BME280;52177;55.968;37.498;2023-04-26T00:10:32;98467.38;;;12.33;72.42
65546;BME280;52177;55.968;37.498;2023-04-26T00:11:02;98472.13;;;12.31;72.36
65546;BME280;52177;55.968;37.498;2023-04-26T00:11:32;98463.28;;;12.30;72.58
65546;BME280;52177;55.968;37.498;2023-04-26T00:12:03;98465.34;;;12.28;72.80
65546;BME280;52177;55.968;37.498;2023-04-26T00:12:33;98462.69;;;12.28;72.64
65546;BME280;52177;55.968;37.498;2023-04-26T00:13:05;98463.75;;;12.27;72.92
65546;BME280;52177;55.968;37.498;2023-04-26T00:13:36;98469.09;;;12.27;73.09
65546;BME280;52177;55.968;37.498;2023-04-26T00:14:07;98463.13;;;12.25;73.20
65546;BME280;52177;55.968;37.498;2023-04-26T00:14:38;98459.66;;;12.24;73.09
65546;BME280;52177;55.968;37.498;2023-04-26T00:15:08;98454.50;;;12.23;73.12
65546;BME280;52177;55.968;37.498;2023-04-26T00:15:39;98461.72;;;12.22;73.33
65546;BME280;52177;55.968;37.498;2023-04-26T00:16:09;98463.53;;;12.22;73.43
65546;BME280;52177;55.968;37.498;2023-04-26T00:16:40;98451.03;;;12.22;73.48
65546;BME280;52177;55.968;37.498;2023-04-26T00:17:10;98462.53;;;12.23;73.48
65546;BME280;52177;55.968;37.498;2023-04-26T00:17:40;98454.31;;;12.24;73.31
65546;BME280;52177;55.968;37.498;2023-04-26T00:18:11;98455.53;;;12.22;73.31
65546;BME280;52177;55.968;37.498;2023-04-26T00:18:42;98456.59;;;12.21;73.28
65546;BME280;52177;55.968;37.498;2023-04-26T00:19:13;98448.78;;;12.19;73.32
65546;BME280;52177;55.968;37.498;2023-04-26T00:19:45;98448.78;;;12.19;73.38
65546;BME280;52177;55.968;37.498;2023-04-26T00:20:16;98458.44;;;12.20;73.19
65546;BME280;52177;55.968;37.498;2023-04-26T00:20:46;98453.09;;;12.20;73.02
65546;BME280;52177;55.968;37.498;2023-04-26T00:21:16;98452.28;;;12.20;72.99
65546;BME280;52177;55.968;37.498;2023-04-26T00:21:47;98445.28;;;12.19;73.01
65546;BME280;52177;55.968;37.498;2023-04-26T00:22:17;98448.78;;;12.19;72.91
65546;BME280;52177;55.968;37.498;2023-04-26T00:22:47;98450.63;;;12.19;72.77
65546;BME280;52177;55.968;37.498;2023-04-26T00:23:18;98454.13;;;12.19;72.91
65546;BME280;52177;55.968;37.498;2023-04-26T00:23:48;98447.97;;;12.19;72.98
65546;BME280;52177;55.968;37.498;2023-04-26T00:24:18;98446.34;;;12.18;72.95
65546;BME280;52177;55.968;37.498;2023-04-26T00:24:48;98453.50;;;12.17;73.03
65546;BME280;52177;55.968;37.498;2023-04-26T00:25:19;98448.41;;;12.16;73.32
65546;BME280;52177;55.968;37.498;2023-04-26T00:25:50;98450.25;;;12.15;73.42
65546;BME280;52177;55.968;37.498;2023-04-26T00:26:20;98451.06;;;12.16;73.44
65546;BME280;52177;55.968;37.498;2023-04-26T00:26:54;98449.41;;;12.15;73.32
65546;BME280;52177;55.968;37.498;2023-04-26T00:27:25;98452.94;;;12.15;73.31
65546;BME280;52177;55.968;37.498;2023-04-26T00:27:55;98446.34;;;12.18;73.13
65546;BME280;52177;55.968;37.498;2023-04-26T00:28:27;98444.47;;;12.18;73.01
65546;BME280;52177;55.968;37.498;2023-04-26T00:28:58;98442.25;;;12.15;73.27
65546;BME280;52177;55.968;37.498;2023-04-26T00:29:28;98441.66;;;12.13;73.16
65546;BME280;52177;55.968;37.498;2023-04-26T00:29:58;98452.75;;;12.10;73.18
65546;BME280;52177;55.968;37.498;2023-04-26T00:30:29;98445.56;;;12.11;73.32
65546;BME280;52177;55.968;37.498;2023-04-26T00:30:59;98441.25;;;12.10;73.07
65546;BME280;52177;55.968;37.498;2023-04-26T00:31:30;98442.25;;;12.15;72.74
65546;BME280;52177;55.968;37.498;2023-04-26T00:32:01;98443.28;;;12.14;72.81
65546;BME280;52177;55.968;37.498;2023-04-26T00:32:31;98441.03;;;12.11;72.73
65546;BME280;52177;55.968;37.498;2023-04-26T00:33:04;98441.50;;;12.08;73.07
65546;BME280;52177;55.968;37.498;2023-04-26T00:33:34;98442.72;;;12.06;73.20
65546;BME280;52177;55.968;37.498;2023-04-26T00:34:05;98434.50;;;12.07;73.04
65546;BME280;52177;55.968;37.498;2023-04-26T00:34:36;98440.28;;;12.04;73.23
65546;BME280;52177;55.968;37.498;2023-04-26T00:35:07;98446.63;;;12.03;73.34
65546;BME280;52177;55.968;37.498;2023-04-26T00:35:38;98443.34;;;12.01;73.36
65546;BME280;52177;55.968;37.498;2023-04-26T00:36:09;98436.41;;;12.00;73.54
65546;BME280;52177;55.968;37.498;2023-04-26T00:36:39;98446.25;;;11.99;73.83
65546;BME280;52177;55.968;37.498;2023-04-26T00:37:10;98439.28;;;11.98;73.82
65546;BME280;52177;55.968;37.498;2023-04-26T00:37:40;98443.00;;;11.97;73.87
65546;BME280;52177;55.968;37.498;2023-04-26T00:38:10;98443.59;;;11.99;73.86
65546;BME280;52177;55.968;37.498;2023-04-26T00:38:41;98438.25;;;11.99;73.82
65546;BME280;52177;55.968;37.498;2023-04-26T00:39:11;98439.66;;;12.02;73.52
65546;BME280;52177;55.968;37.498;2023-04-26T00:39:41;98438.63;;;12.03;73.44
65546;BME280;52177;55.968;37.498;2023-04-26T00:40:12;98427.13;;;12.02;73.47
65546;BME280;52177;55.968;37.498;2023-04-26T00:40:43;98432.47;;;12.02;73.72
65546;BME280;52177;55.968;37.498;2023-04-26T00:41:13;98440.69;;;12.01;73.93
65546;BME280;52177;55.968;37.498;2023-04-26T00:41:43;98440.69;;;12.01;73.71
65546;BME280;52177;55.968;37.498;2023-04-26T00:42:14;98437.81;;;12.02;73.55
65546;BME280;52177;55.968;37.498;2023-04-26T00:42:44;98437.22;;;12.00;73.77
65546;BME280;52177;55.968;37.498;2023-04-26T00:43:15;98432.09;;;11.99;73.81
65546;BME280;52177;55.968;37.498;2023-04-26T00:43:45;98435.78;;;11.98;73.96
65546;BME280;52177;55.968;37.498;2023-04-26T00:44:15;98430.69;;;11.96;74.10
65546;BME280;52177;55.968;37.498;2023-04-26T00:44:46;98437.66;;;11.97;74.31
65546;BME280;52177;55.968;37.498;2023-04-26T00:45:16;98435.19;;;11.96;74.35
65546;BME280;52177;55.968;37.498;2023-04-26T00:45:46;98439.50;;;11.97;74.33
65546;BME280;52177;55.968;37.498;2023-04-26T00:46:17;98434.97;;;11.97;74.11
65546;BME280;52177;55.968;37.498;2023-04-26T00:46:48;98427.78;;;11.98;73.89
65546;BME280;52177;55.968;37.498;2023-04-26T00:47:21;98432.91;;;11.99;73.93
65546;BME280;52177;55.968;37.498;2023-04-26T00:47:52;98431.50;;;11.97;74.06
65546;BME280;52177;55.968;37.498;2023-04-26T00:48:22;98428.22;;;11.95;74.10
65546;BME280;52177;55.968;37.498;2023-04-26T00:48:53;98434.00;;;11.92;74.26
65546;BME280;52177;55.968;37.498;2023-04-26T00:49:24;98428.66;;;11.92;74.11
65546;BME280;52177;55.968;37.498;2023-04-26T00:49:55;98425.16;;;11.91;74.22
65546;BME280;52177;55.968;37.498;2023-04-26T00:50:26;98429.47;;;11.92;74.22
65546;BME280;52177;55.968;37.498;2023-04-26T00:50:56;98424.94;;;11.93;74.34
65546;BME280;52177;55.968;37.498;2023-04-26T00:51:27;98416.13;;;11.92;74.24
65546;BME280;52177;55.968;37.498;2023-04-26T00:51:57;98423.31;;;11.92;74.19
65546;BME280;52177;55.968;37.498;2023-04-26T00:52:29;98416.72;;;11.94;73.94
65546;BME280;52177;55.968;37.498;2023-04-26T00:53:01;98419.16;;;11.96;74.04
65546;BME280;52177;55.968;37.498;2023-04-26T00:53:32;98426.81;;;11.92;74.26
65546;BME280;52177;55.968;37.498;2023-04-26T00:54:05;98420.66;;;11.92;74.21
65546;BME280;52177;55.968;37.498;2023-04-26T00:54:36;98427.81;;;11.91;74.20
65546;BME280;52177;55.968;37.498;2023-04-26T00:55:07;98420.66;;;11.92;74.31
65546;BME280;52177;55.968;37.498;2023-04-26T00:55:37;98423.53;;;11.90;74.33
65546;BME280;52177;55.968;37.498;2023-04-26T00:56:08;98417.38;;;11.90;74.50
65546;BME280;52177;55.968;37.498;2023-04-26T00:56:38;98416.31;;;11.91;74.50
65546;BME280;52177;55.968;37.498;2023-04-26T00:57:12;98420.03;;;11.90;74.44
65546;BME280;52177;55.968;37.498;2023-04-26T00:57:44;98416.78;;;11.88;74.35
65546;BME280;52177;55.968;37.498;2023-04-26T00:58:15;98416.94;;;11.86;74.36
65546;BME280;52177;55.968;37.498;2023-04-26T00:58:45;98417.75;;;11.87;74.41
65546;BME280;52177;55.968;37.498;2023-04-26T00:59:16;98414.28;;;11.86;74.36
65546;BME280;52177;55.968;37.498;2023-04-26T00:59:46;98420.44;;;11.87;74.31
65546;BME280;52177;55.968;37.498;2023-04-26T01:00:18;98408.75;;;11.88;74.04
65546;BME280;52177;55.968;37.498;2023-04-26T01:00:48;98415.97;;;11.87;74.27
65546;BME280;52177;55.968;37.498;2023-04-26T01:01:19;98417.16;;;11.84;74.30
65546;BME280;52177;55.968;37.498;2023-04-26T01:01:50;98411.00;;;11.84;74.34
65546;BME280;52177;55.968;37.498;2023-04-26T01:02:20;98416.56;;;11.82;74.34
65546;BME280;52177;55.968;37.498;2023-04-26T01:02:51;98414.09;;;11.81;74.82
65546;BME280;52177;55.968;37.498;2023-04-26T01:03:22;98413.50;;;11.79;74.84
65546;BME280;52177;55.968;37.498;2023-04-26T01:03:52;98409.81;;;11.80;74.77
65546;BME280;52177;55.968;37.498;2023-04-26T01:04:23;98403.00;;;11.84;74.29
65546;BME280;52177;55.968;37.498;2023-04-26T01:04:56;98405.91;;;11.82;74.46
65546;BME280;52177;55.968;37.498;2023-04-26T01:05:26;98409.59;;;11.81;74.31
65546;BME280;52177;55.968;37.498;2023-04-26T01:05:57;98408.97;;;11.79;74.58
65546;BME280;52177;55.968;37.498;2023-04-26T01:06:32;98405.69;;;11.77;74.61
65546;BME280;52177;55.968;37.498;2023-04-26T01:07:03;98409.22;;;11.78;74.41
65546;BME280;52177;55.968;37.498;2023-04-26T01:07:35;98409.81;;;11.80;74.27
65546;BME280;52177;55.968;37.498;2023-04-26T01:08:06;98415.38;;;11.78;74.21
65546;BME280;52177;55.968;37.498;2023-04-26T01:08:36;98406.75;;;11.76;74.31
65546;BME280;52177;55.968;37.498;2023-04-26T01:09:07;98409.00;;;11.73;74.60
65546;BME280;52177;55.968;37.498;2023-04-26T01:09:39;98406.34;;;11.73;74.64
65546;BME280;52177;55.968;37.498;2023-04-26T01:10:10;98404.53;;;11.73;74.54
65546;BME280;52177;55.968;37.498;2023-04-26T01:10:40;98403.09;;;11.71;74.69
65546;BME280;52177;55.968;37.498;2023-04-26T01:11:11;98401.66;;;11.68;75.07
65546;BME280;52177;55.968;37.498;2023-04-26T01:11:42;98404.16;;;11.63;75.46
65546;BME280;52177;55.968;37.498;2023-04-26T01:12:13;98404.59;;;11.60;75.52
65546;BME280;52177;55.968;37.498;2023-04-26T01:12:44;98401.72;;;11.61;75.56
65546;BME280;52177;55.968;37.498;2023-04-26T01:13:15;98400.88;;;11.61;75.37
65546;BME280;52177;55.968;37.498;2023-04-26T01:13:46;98399.06;;;11.61;75.46
65546;BME280;52177;55.968;37.498;2023-04-26T01:14:17;98405.19;;;11.62;75.38
65546;BME280;52177;55.968;37.498;2023-04-26T01:14:47;98400.31;;;11.59;75.60
65546;BME280;52177;55.968;37.498;2023-04-26T01:15:18;98401.94;;;11.60;75.37
65546;BME280;52177;55.968;37.498;2023-04-26T01:15:49;98399.47;;;11.58;75.72
65546;BME280;52177;55.968;37.498;2023-04-26T01:16:20;98398.66;;;11.58;75.62
65546;BME280;52177;55.968;37.498;2023-04-26T01:16:50;98393.91;;;11.60;75.50
65546;BME280;52177;55.968;37.498;2023-04-26T01:17:21;98400.31;;;11.59;75.51
65546;BME280;52177;55.968;37.498;2023-04-26T01:17:51;98393.09;;;11.59;75.54
65546;BME280;52177;55.968;37.498;2023-04-26T01:18:22;98391.44;;;11.58;75.74
65546;BME280;52177;55.968;37.498;2023-04-26T01:18:53;98393.31;;;11.58;75.74
65546;BME280;52177;55.968;37.498;2023-04-26T01:19:23;98394.34;;;11.57;75.78
65546;BME280;52177;55.968;37.498;2023-04-26T01:19:54;98387.38;;;11.56;76.10
65546;BME280;52177;55.968;37.498;2023-04-26T01:20:25;98392.72;;;11.56;76.14
65546;BME280;52177;55.968;37.498;2023-04-26T01:20:56;98390.03;;;11.56;76.02
65546;BME280;52177;55.968;37.498;2023-04-26T01:21:26;98393.09;;;11.59;75.90
65546;BME280;52177;55.968;37.498;2023-04-26T01:21:57;98393.91;;;11.60;75.73
65546;BME280;52177;55.968;37.498;2023-04-26T01:22:31;98385.09;;;11.59;75.77
65546;BME280;52177;55.968;37.498;2023-04-26T01:23:01;98389.63;;;11.59;75.74
65546;BME280;52177;55.968;37.498;2023-04-26T01:23:32;98394.53;;;11.62;75.35
65546;BME280;52177;55.968;37.498;2023-04-26T01:24:02;98392.66;;;11.62;75.49
65546;BME280;52177;55.968;37.498;2023-04-26T01:24:34;98390.19;;;11.61;75.60
65546;BME280;52177;55.968;37.498;2023-04-26T01:25:04;98380.56;;;11.60;75.64
65546;BME280;52177;55.968;37.498;2023-04-26T01:25:38;98386.97;;;11.59;75.94
65546;BME280;52177;55.968;37.498;2023-04-26T01:26:09;98386.97;;;11.59;76.00
65546;BME280;52177;55.968;37.498;2023-04-26T01:26:40;98386.97;;;11.59;76.00
65546;BME280;52177;55.968;37.498;2023-04-26T01:27:17;98390.19;;;11.61;75.89
65546;BME280;52177;55.968;37.498;2023-04-26T01:27:47;98385.72;;;11.61;75.72
65546;BME280;52177;55.968;37.498;2023-04-26T01:28:17;98386.50;;;11.62;75.69
65546;BME280;52177;55.968;37.498;2023-04-26T01:28:48;98384.88;;;11.61;75.61
65546;BME280;52177;55.968;37.498;2023-04-26T01:29:20;98384.88;;;11.61;75.76
65546;BME280;52177;55.968;37.498;2023-04-26T01:29:50;98382.19;;;11.61;75.83
65546;BME280;52177;55.968;37.498;2023-04-26T01:30:20;98375.03;;;11.61;75.70
65546;BME280;52177;55.968;37.498;2023-04-26T01:30:51;98382.19;;;11.61;75.52
65546;BME280;52177;55.968;37.498;2023-04-26T01:31:21;98386.31;;;11.64;75.51
65546;BME280;52177;55.968;37.498;2023-04-26T01:31:52;98379.53;;;11.61;75.58
65546;BME280;52177;55.968;37.498;2023-04-26T01:32:22;98376.28;;;11.59;75.59
65546;BME280;52177;55.968;37.498;2023-04-26T01:32:52;98381.63;;;11.59;75.65
65546;BME280;52177;55.968;37.498;2023-04-26T01:33:23;98371.97;;;11.58;75.67
65546;BME280;52177;55.968;37.498;2023-04-26T01:33:53;98368.47;;;11.57;75.57
65546;BME280;52177;55.968;37.498;2023-04-26T01:34:24;98367.88;;;11.55;75.71
65546;BME280;52177;55.968;37.498;2023-04-26T01:34:54;98374.03;;;11.56;75.69
65546;BME280;52177;55.968;37.498;2023-04-26T01:35:24;98371.97;;;11.58;75.58
65546;BME280;52177;55.968;37.498;2023-04-26T01:35:55;98371.97;;;11.58;75.60
65546;BME280;52177;55.968;37.498;2023-04-26T01:36:25;98374.03;;;11.56;75.57
65546;BME280;52177;55.968;37.498;2023-04-26T01:36:56;98375.47;;;11.52;75.91
65546;BME280;52177;55.968;37.498;2023-04-26T01:37:26;98378.16;;;11.52;75.84
65546;BME280;52177;55.968;37.498;2023-04-26T01:37:56;98373.25;;;11.49;75.96
65546;BME280;52177;55.968;37.498;2023-04-26T01:38:27;98368.56;;;11.44;76.24
65546;BME280;52177;55.968;37.498;2023-04-26T01:38:57;98363.22;;;11.44;76.12
65546;BME280;52177;55.968;37.498;2023-04-26T01:39:28;98362.41;;;11.44;76.16
65546;BME280;52177;55.968;37.498;2023-04-26T01:39:58;98367.75;;;11.44;76.23
65546;BME280;52177;55.968;37.498;2023-04-26T01:40:29;98362.59;;;11.42;76.48
65546;BME280;52177;55.968;37.498;2023-04-26T01:40:59;98363.44;;;11.43;76.32
65546;BME280;52177;55.968;37.498;2023-04-26T01:41:29;98371.03;;;11.46;76.32
65546;BME280;52177;55.968;37.498;2023-04-26T01:42:00;98369.81;;;11.41;76.54
65546;BME280;52177;55.968;37.498;2023-04-26T01:42:32;98367.34;;;11.40;76.38
65546;BME280;52177;55.968;37.498;2023-04-26T01:43:02;98366.31;;;11.41;76.34
65546;BME280;52177;55.968;37.498;2023-04-26T01:43:33;98364.25;;;11.43;76.22
65546;BME280;52177;55.968;37.498;2023-04-26T01:44:03;98364.09;;;11.38;76.74
65546;BME280;52177;55.968;37.498;2023-04-26T01:44:34;98366.75;;;11.38;76.62
65546;BME280;52177;55.968;37.498;2023-04-26T01:45:05;98361.00;;;11.41;76.50
65546;BME280;52177;55.968;37.498;2023-04-26T01:45:35;98350.91;;;11.43;76.32
65546;BME280;52177;55.968;37.498;2023-04-26T01:46:06;98365.50;;;11.40;76.43
65546;BME280;52177;55.968;37.498;2023-04-26T01:46:36;98355.25;;;11.37;76.55
65546;BME280;52177;55.968;37.498;2023-04-26T01:47:06;98358.97;;;11.36;76.74
65546;BME280;52177;55.968;37.498;2023-04-26T01:47:37;98357.31;;;11.35;76.85
65546;BME280;52177;55.968;37.498;2023-04-26T01:48:07;98355.69;;;11.34;76.95
65546;BME280;52177;55.968;37.498;2023-04-26T01:48:37;98359.16;;;11.35;76.93
65546;BME280;52177;55.968;37.498;2023-04-26T01:49:08;98353.63;;;11.36;76.84
65546;BME280;52177;55.968;37.498;2023-04-26T01:49:38;98351.56;;;11.38;76.77
65546;BME280;52177;55.968;37.498;2023-04-26T01:50:09;98357.09;;;11.37;76.78
65546;BME280;52177;55.968;37.498;2023-04-26T01:50:39;98358.97;;;11.36;76.90
65546;BME280;52177;55.968;37.498;2023-04-26T01:51:10;98349.31;;;11.35;76.97
65546;BME280;52177;55.968;37.498;2023-04-26T01:51:40;98351.97;;;11.35;77.14
65546;BME280;52177;55.968;37.498;2023-04-26T01:52:10;98352.22;;;11.34;77.06
65546;BME280;52177;55.968;37.498;2023-04-26T01:52:41;98348.72;;;11.33;77.19
65546;BME280;52177;55.968;37.498;2023-04-26T01:53:11;98350.97;;;11.36;77.19
65546;BME280;52177;55.968;37.498;2023-04-26T01:53:41;98353.81;;;11.35;77.37
65546;BME280;52177;55.968;37.498;2023-04-26T01:54:12;98348.72;;;11.33;77.47
65546;BME280;52177;55.968;37.498;2023-04-26T01:54:42;98348.94;;;11.32;77.43
65546;BME280;52177;55.968;37.498;2023-04-26T01:55:13;98346.47;;;11.30;77.61
65546;BME280;52177;55.968;37.498;2023-04-26T01:55:43;98346.47;;;11.30;77.60
65546;BME280;52177;55.968;37.498;2023-04-26T01:56:13;98347.88;;;11.33;77.46
65546;BME280;52177;55.968;37.498;2023-04-26T01:56:44;98343.59;;;11.32;77.58
65546;BME280;52177;55.968;37.498;2023-04-26T01:57:14;98347.88;;;11.33;77.61
65546;BME280;52177;55.968;37.498;2023-04-26T01:57:44;98347.69;;;11.34;77.46
65546;BME280;52177;55.968;37.498;2023-04-26T01:58:15;98346.88;;;11.34;77.52
65546;BME280;52177;55.968;37.498;2023-04-26T01:58:45;98345.63;;;11.36;77.38
65546;BME280;52177;55.968;37.498;2023-04-26T01:59:16;98346.22;;;11.38;77.10
65546;BME280;52177;55.968;37.498;2023-04-26T01:59:46;98353.19;;;11.39;76.91
65546;BME280;52177;55.968;37.498;2023-04-26T02:00:17;98345.78;;;11.41;77.01
65546;BME280;52177;55.968;37.498;2023-04-26T02:00:47;98343.56;;;11.38;77.20
65546;BME280;52177;55.968;37.498;2023-04-26T02:01:18;98340.28;;;11.36;77.15
65546;BME280;52177;55.968;37.498;2023-04-26T02:01:48;98343.59;;;11.32;77.35
65546;BME280;52177;55.968;37.498;2023-04-26T02:02:18;98345.88;;;11.28;77.47
65546;BME280;52177;55.968;37.498;2023-04-26T02:02:53;98342.38;;;11.28;77.64
65546;BME280;52177;55.968;37.498;2023-04-26T02:03:24;98342.19;;;11.29;77.53
65546;BME280;52177;55.968;37.498;2023-04-26T02:03:54;98342.38;;;11.28;77.56
65546;BME280;52177;55.968;37.498;2023-04-26T02:04:25;98342.63;;;11.26;77.67
65546;BME280;52177;55.968;37.498;2023-04-26T02:04:56;98336.22;;;11.27;77.74
65546;BME280;52177;55.968;37.498;2023-04-26T02:05:26;98339.72;;;11.28;77.71
65546;BME280;52177;55.968;37.498;2023-04-26T02:05:57;98333.56;;;11.27;77.78
65546;BME280;52177;55.968;37.498;2023-04-26T02:06:27;98337.84;;;11.28;77.60
65546;BME280;52177;55.968;37.498;2023-04-26T02:06:57;98335.19;;;11.28;77.64
65546;BME280;52177;55.968;37.498;2023-04-26T02:07:28;98335.44;;;11.27;77.77
65546;BME280;52177;55.968;37.498;2023-04-26T02:07:58;98328.22;;;11.27;77.71
65546;BME280;52177;55.968;37.498;2023-04-26T02:08:28;98330.09;;;11.27;77.80
65546;BME280;52177;55.968;37.498;2023-04-26T02:08:59;98343.44;;;11.27;77.81
65546;BME280;52177;55.968;37.498;2023-04-26T02:09:29;98335.84;;;11.24;78.04
65546;BME280;52177;55.968;37.498;2023-04-26T02:10:00;98330.72;;;11.22;78.28
65546;BME280;52177;55.968;37.498;2023-04-26T02:10:30;98331.34;;;11.24;78.12
65546;BME280;52177;55.968;37.498;2023-04-26T02:11:00;98329.66;;;11.30;77.79
65546;BME280;52177;55.968;37.498;2023-04-26T02:11:31;98332.94;;;11.32;77.60
65546;BME280;52177;55.968;37.498;2023-04-26T02:12:01;98327.19;;;11.28;77.63
65546;BME280;52177;55.968;37.498;2023-04-26T02:12:31;98329.28;;;11.26;77.72
65546;BME280;52177;55.968;37.498;2023-04-26T02:13:02;98320.66;;;11.24;77.90
65546;BME280;52177;55.968;37.498;2023-04-26T02:13:32;98326.00;;;11.24;77.90
65546;BME280;52177;55.968;37.498;2023-04-26T02:14:03;98321.28;;;11.26;77.81
65546;BME280;52177;55.968;37.498;2023-04-26T02:14:33;98322.09;;;11.27;77.79
65546;BME280;52177;55.968;37.498;2023-04-26T02:15:04;98317.56;;;11.27;77.76
65546;BME280;52177;55.968;37.498;2023-04-26T02:15:35;98329.84;;;11.28;77.73
65546;BME280;52177;55.968;37.498;2023-04-26T02:16:05;98320.22;;;11.27;77.70
65546;BME280;52177;55.968;37.498;2023-04-26T02:16:38;98314.91;;;11.27;77.67
65546;BME280;52177;55.968;37.498;2023-04-26T02:17:08;98315.50;;;11.29;77.54
65546;BME280;52177;55.968;37.498;2023-04-26T02:17:41;98314.09;;;11.27;77.64
65546;BME280;52177;55.968;37.498;2023-04-26T02:18:11;98316.16;;;11.25;77.71
65546;BME280;52177;55.968;37.498;2023-04-26T02:18:42;98323.75;;;11.21;78.20
65546;BME280;52177;55.968;37.498;2023-04-26T02:19:13;98316.59;;;11.22;78.18
65546;BME280;52177;55.968;37.498;2023-04-26T02:19:44;98314.72;;;11.22;78.16
65546;BME280;52177;55.968;37.498;2023-04-26T02:20:15;98315.75;;;11.21;78.04
65546;BME280;52177;55.968;37.498;2023-04-26T02:20:45;98321.91;;;11.22;78.36
65546;BME280;52177;55.968;37.498;2023-04-26T02:21:16;98317.59;;;11.20;78.34
65546;BME280;52177;55.968;37.498;2023-04-26T02:21:53;98316.59;;;11.22;78.28
65546;BME280;52177;55.968;37.498;2023-04-26T02:22:24;98319.00;;;11.23;78.26
65546;BME280;52177;55.968;37.498;2023-04-26T02:22:55;98318.81;;;11.25;78.23
65546;BME280;52177;55.968;37.498;2023-04-26T02:23:25;98319.63;;;11.25;78.03
65546;BME280;52177;55.968;37.498;2023-04-26T02:23:56;98312.06;;;11.22;78.29
65546;BME280;52177;55.968;37.498;2023-04-26T02:24:26;98309.59;;;11.20;78.15
65546;BME280;52177;55.968;37.498;2023-04-26T02:24:57;98316.59;;;11.22;78.20
65546;BME280;52177;55.968;37.498;2023-04-26T02:25:27;98315.53;;;11.23;78.21
65546;BME280;52177;55.968;37.498;2023-04-26T02:25:57;98316.16;;;11.25;78.11
65546;BME280;52177;55.968;37.498;2023-04-26T02:26:28;98307.34;;;11.24;78.20
65546;BME280;52177;55.968;37.498;2023-04-26T02:26:58;98316.59;;;11.22;78.22
65546;BME280;52177;55.968;37.498;2023-04-26T02:27:32;98306.56;;;11.17;78.42
65546;BME280;52177;55.968;37.498;2023-04-26T02:28:04;98310.84;;;11.18;78.32
65546;BME280;52177;55.968;37.498;2023-04-26T02:28:34;98312.47;;;11.19;78.33
65546;BME280;52177;55.968;37.498;2023-04-26T02:29:04;98320.06;;;11.22;78.22
65546;BME280;52177;55.968;37.498;2023-04-26T02:29:35;98308.19;;;11.18;78.24
65546;BME280;52177;55.968;37.498;2023-04-26T02:30:06;98308.38;;;11.16;78.39
65546;BME280;52177;55.968;37.498;2023-04-26T02:30:37;98308.38;;;11.16;78.50
65546;BME280;52177;55.968;37.498;2023-04-26T02:31:07;98304.47;;;11.19;78.36
65546;BME280;52177;55.968;37.498;2023-04-26T02:31:38;98311.81;;;11.24;78.19
65546;BME280;52177;55.968;37.498;2023-04-26T02:32:08;98312.06;;;11.22;78.12
65546;BME280;52177;55.968;37.498;2023-04-26T02:32:39;98307.13;;;11.19;78.32
65546;BME280;52177;55.968;37.498;2023-04-26T02:33:09;98316.19;;;11.18;78.40
65546;BME280;52177;55.968;37.498;2023-04-26T02:33:39;98308.19;;;11.18;78.39
65546;BME280;52177;55.968;37.498;2023-04-26T02:34:11;98304.69;;;11.17;78.70
65546;BME280;52177;55.968;37.498;2023-04-26T02:34:42;98307.13;;;11.19;78.36
65546;BME280;52177;55.968;37.498;2023-04-26T02:35:12;98309.81;;;11.19;78.34
65546;BME280;52177;55.968;37.498;2023-04-26T02:35:43;98307.13;;;11.19;78.43
65546;BME280;52177;55.968;37.498;2023-04-26T02:36:14;98306.75;;;11.15;78.58
65546;BME280;52177;55.968;37.498;2023-04-26T02:36:44;98309.44;;;11.15;78.59
65546;BME280;52177;55.968;37.498;2023-04-26T02:37:14;98298.31;;;11.18;78.52
65546;BME280;52177;55.968;37.498;2023-04-26T02:37:45;98307.75;;;11.21;78.23
65546;BME280;52177;55.968;37.498;2023-04-26T02:38:18;98307.13;;;11.19;78.34
65546;BME280;52177;55.968;37.498;2023-04-26T02:38:48;98309.22;;;11.17;78.62
65546;BME280;52177;55.968;37.498;2023-04-26T02:39:18;98306.31;;;11.18;78.61
65546;BME280;52177;55.968;37.498;2023-04-26T02:39:50;98299.75;;;11.21;78.51
65546;BME280;52177;55.968;37.498;2023-04-26T02:40:21;98302.41;;;11.21;78.42
65546;BME280;52177;55.968;37.498;2023-04-26T02:41:01;98295.44;;;11.20;78.44